createdAt,value
2022-12-24T00:03:08.703Z,100.00
2022-12-24T00:08:10.281Z,100.00
2022-12-24T00:13:11.743Z,100.00
2022-12-24T00:18:13.416Z,100.00
2022-12-24T00:23:16.857Z,100.00
2022-12-24T00:28:18.430Z,100.00
2022-12-24T00:33:24.427Z,100.00
2022-12-24T00:38:26.398Z,100.00
2022-12-24T00:43:29.503Z,100.00
2022-12-24T00:48:31.152Z,100.00
2022-12-24T00:53:32.667Z,100.00
2022-12-24T00:58:34.186Z,100.00
2022-12-24T01:03:36.175Z,100.00
2022-12-24T01:08:38.210Z,100.00
2022-12-24T01:13:40.166Z,100.00
2022-12-24T01:18:41.735Z,100.00
2022-12-24T01:23:43.976Z,100.00
2022-12-24T01:28:45.597Z,100.00
2022-12-24T01:33:49.174Z,100.00
2022-12-24T01:38:50.679Z,100.00
2022-12-24T01:43:52.251Z,100.00
2022-12-24T01:48:57.921Z,100.00
2022-12-24T01:54:17.010Z,100.00
2022-12-24T01:59:19.735Z,100.00
2022-12-24T02:04:53.020Z,100.00
2022-12-24T02:09:58.203Z,100.00
2022-12-24T02:15:00.391Z,100.00
2022-12-24T02:20:12.674Z,100.00
2022-12-24T02:25:42.240Z,100.00
2022-12-24T02:30:53.269Z,100.00
2022-12-24T02:36:06.412Z,100.00
2022-12-24T02:41:14.997Z,100.00
2022-12-24T02:46:21.821Z,100.00
2022-12-24T02:51:24.916Z,100.00
2022-12-24T02:56:39.648Z,100.00
2022-12-24T03:01:57.304Z,100.00
2022-12-24T03:07:27.403Z,100.00
2022-12-24T03:13:01.512Z,100.00
2022-12-24T03:18:05.288Z,100.00
2022-12-24T03:23:07.637Z,100.00
2022-12-24T03:28:11.943Z,100.00
2022-12-24T03:33:14.468Z,100.00
2022-12-24T03:38:16.010Z,100.00
2022-12-24T03:43:17.534Z,100.00
2022-12-24T03:48:19.013Z,100.00
2022-12-24T03:53:20.484Z,100.00
2022-12-24T03:58:21.975Z,100.00
2022-12-24T04:03:23.478Z,100.00
2022-12-24T04:08:25.018Z,100.00
2022-12-24T04:13:26.608Z,100.00
2022-12-24T04:18:28.399Z,100.00
2022-12-24T04:23:34.299Z,100.00
2022-12-24T04:28:37.297Z,100.00
2022-12-24T04:33:39.347Z,100.00
2022-12-24T04:38:40.912Z,100.00
2022-12-24T04:43:42.527Z,100.00
2022-12-24T04:48:45.307Z,100.00
2022-12-24T04:53:47.203Z,100.00
2022-12-24T04:58:49.109Z,100.00
2022-12-24T05:03:51.496Z,100.00
2022-12-24T05:08:57.486Z,100.00
2022-12-24T05:13:59.237Z,100.00
2022-12-24T05:19:00.773Z,100.00
2022-12-24T05:24:21.277Z,100.00
2022-12-24T05:29:23.348Z,100.00
2022-12-24T05:34:24.965Z,100.00
2022-12-24T05:39:26.454Z,100.00
2022-12-24T05:44:28.034Z,100.00
2022-12-24T05:49:30.844Z,100.00
2022-12-24T05:54:32.427Z,100.00
2022-12-24T05:59:34.025Z,100.00
2022-12-24T06:04:35.683Z,100.00
2022-12-24T06:09:37.238Z,100.00
2022-12-24T06:14:38.753Z,100.00
2022-12-24T06:19:40.261Z,100.00
2022-12-24T06:24:41.720Z,100.00
2022-12-24T06:29:43.238Z,100.00
2022-12-24T06:34:44.788Z,100.00
2022-12-24T06:39:46.627Z,100.00
2022-12-24T06:44:48.114Z,100.00
2022-12-24T06:49:49.660Z,100.00
2022-12-24T06:54:51.161Z,100.00
2022-12-24T06:59:52.635Z,100.00
2022-12-24T07:04:54.109Z,100.00
2022-12-24T07:09:55.978Z,100.00
2022-12-24T07:14:57.515Z,100.00
2022-12-24T07:19:59.107Z,100.00
2022-12-24T07:25:00.681Z,100.00
2022-12-24T07:30:02.601Z,100.00
2022-12-24T07:35:04.373Z,100.00
2022-12-24T07:40:08.030Z,100.00
2022-12-24T07:45:10.054Z,100.00
2022-12-24T07:50:11.858Z,100.00
2022-12-24T07:55:13.376Z,100.00
2022-12-24T08:00:15.109Z,100.00
2022-12-24T08:05:16.728Z,100.00
2022-12-24T08:10:18.311Z,100.00
2022-12-24T08:15:19.978Z,100.00
2022-12-24T08:20:21.519Z,100.00
2022-12-24T08:25:23.066Z,99.96
2022-12-24T08:30:24.646Z,100.00
2022-12-24T08:35:26.420Z,100.00
2022-12-24T08:40:27.879Z,100.00
2022-12-24T08:45:33.177Z,100.00
2022-12-24T08:50:41.689Z,100.00
2022-12-24T08:55:43.181Z,100.00
2022-12-24T09:00:44.686Z,100.00
2022-12-24T09:05:46.198Z,100.00
2022-12-24T09:10:47.684Z,100.00
2022-12-24T09:15:54.240Z,100.00
2022-12-24T09:21:03.476Z,99.99
2022-12-24T09:26:10.344Z,99.89
2022-12-24T09:31:12.677Z,99.79
2022-12-24T09:36:14.807Z,99.74
2022-12-24T09:41:31.310Z,99.90
2022-12-24T09:46:38.979Z,99.39
2022-12-24T09:51:53.851Z,99.29
2022-12-24T09:56:58.238Z,99.09
2022-12-24T10:02:00.527Z,98.83
2022-12-24T10:07:16.276Z,98.89
2022-12-24T10:12:26.634Z,98.49
2022-12-24T10:17:47.695Z,98.30
2022-12-24T10:22:52.081Z,98.16
2022-12-24T10:27:55.821Z,97.97
2022-12-24T10:32:57.345Z,97.92
2022-12-24T10:37:58.877Z,97.91
2022-12-24T10:43:00.916Z,97.82
2022-12-24T10:48:07.425Z,97.76
2022-12-24T10:53:24.439Z,97.77
2022-12-24T10:58:26.021Z,97.68
2022-12-24T11:03:34.013Z,97.61
2022-12-24T11:08:38.057Z,97.17
2022-12-24T11:13:45.721Z,97.42
2022-12-24T11:18:51.892Z,97.47
2022-12-24T11:23:57.482Z,97.28
2022-12-24T11:29:22.626Z,97.02
2022-12-24T11:34:33.116Z,97.06
2022-12-24T11:39:41.418Z,96.72
2022-12-24T11:44:51.851Z,96.67
2022-12-24T11:49:53.363Z,96.90
2022-12-24T11:55:03.357Z,97.07
2022-12-24T12:00:05.156Z,97.35
2022-12-24T12:05:23.278Z,97.60
2022-12-24T12:10:32.429Z,97.87
2022-12-24T12:16:02.240Z,97.80
2022-12-24T12:21:08.557Z,98.16
2022-12-24T12:26:18.225Z,98.07
2022-12-24T12:31:45.876Z,98.10
2022-12-24T12:37:00.683Z,97.97
2022-12-24T12:42:24.287Z,97.87
2022-12-24T12:47:52.306Z,97.72
2022-12-24T12:53:24.722Z,97.68
2022-12-24T12:58:35.345Z,97.47
2022-12-24T13:04:14.485Z,97.41
2022-12-24T13:09:33.302Z,97.37
2022-12-24T13:14:46.601Z,97.22
2022-12-24T13:20:10.861Z,97.17
2022-12-24T13:25:22.556Z,96.87
2022-12-24T13:30:43.389Z,96.93
2022-12-24T13:36:02.254Z,96.88
2022-12-24T13:41:38.238Z,96.78
2022-12-24T13:47:03.328Z,96.73
2022-12-24T13:52:30.431Z,96.66
2022-12-24T13:57:37.045Z,96.21
2022-12-24T14:02:52.796Z,96.03
2022-12-24T14:07:56.574Z,95.49
2022-12-24T14:12:58.234Z,95.41
2022-12-24T14:17:59.752Z,95.47
2022-12-24T14:23:01.799Z,95.29
2022-12-24T14:28:18.983Z,95.12
2022-12-24T14:33:30.633Z,95.33
2022-12-24T14:38:32.606Z,95.16
2022-12-24T14:43:57.531Z,95.16
2022-12-24T14:49:10.692Z,95.12
2022-12-24T14:54:27.078Z,95.16
2022-12-24T14:59:28.811Z,95.27
2022-12-24T15:04:30.281Z,95.43
2022-12-24T15:09:33.841Z,95.36
2022-12-24T15:14:42.968Z,95.51
2022-12-24T15:19:47.598Z,95.51
2022-12-24T15:24:49.181Z,95.45
2022-12-24T15:29:56.349Z,95.73
2022-12-24T15:35:00.191Z,95.84
2022-12-24T15:40:09.860Z,95.97
2022-12-24T15:45:27.836Z,95.77
2022-12-24T15:50:31.444Z,95.74
2022-12-24T15:55:40.856Z,95.58
2022-12-24T16:00:42.525Z,94.97
2022-12-24T16:05:44.496Z,94.48
2022-12-24T16:10:49.264Z,93.63
2022-12-24T16:15:59.465Z,93.35
2022-12-24T16:21:01.740Z,93.03
2022-12-24T16:26:03.254Z,92.78
2022-12-24T16:31:05.329Z,92.82
2022-12-24T16:36:07.077Z,92.76
2022-12-24T16:41:08.519Z,92.73
2022-12-24T16:46:13.474Z,92.63
2022-12-24T16:51:15.349Z,92.95
2022-12-24T16:56:17.065Z,92.88
2022-12-24T17:01:18.623Z,92.82
2022-12-24T17:06:20.170Z,93.16
2022-12-24T17:11:24.737Z,93.13
2022-12-24T17:16:26.392Z,92.93
2022-12-24T17:21:27.983Z,93.03
2022-12-24T17:26:29.685Z,93.09
2022-12-24T17:31:32.572Z,92.91
2022-12-24T17:36:34.473Z,92.89
2022-12-24T17:41:36.065Z,93.00
2022-12-24T17:46:37.752Z,92.91
2022-12-24T17:51:45.047Z,92.89
2022-12-24T17:56:47.285Z,93.12
2022-12-24T18:01:49.083Z,92.89
2022-12-24T18:06:51.296Z,92.94
2022-12-24T18:11:54.522Z,92.91
2022-12-24T18:16:56.051Z,92.69
2022-12-24T18:21:57.560Z,92.70
2022-12-24T18:26:59.200Z,92.64
2022-12-24T18:32:00.780Z,92.75
2022-12-24T18:37:02.322Z,93.16
2022-12-24T18:42:03.869Z,93.39
2022-12-24T18:47:05.527Z,93.49
2022-12-24T18:52:09.350Z,93.75
2022-12-24T18:57:10.931Z,93.91
2022-12-24T19:02:12.549Z,94.23
2022-12-24T19:07:14.083Z,94.89
2022-12-24T19:12:15.807Z,94.97
2022-12-24T19:17:17.345Z,95.13
2022-12-24T19:22:18.839Z,95.38
2022-12-24T19:27:20.400Z,95.40
2022-12-24T19:32:21.917Z,95.83
2022-12-24T19:37:23.420Z,95.94
2022-12-24T19:42:24.953Z,96.28
2022-12-24T19:47:26.894Z,96.41
2022-12-24T19:52:28.439Z,96.70
2022-12-24T19:57:29.959Z,96.88
2022-12-24T20:02:33.309Z,96.88
2022-12-24T20:07:34.896Z,96.88
2022-12-24T20:12:36.413Z,97.29
2022-12-24T20:17:37.934Z,97.30
2022-12-24T20:22:39.518Z,97.60
2022-12-24T20:27:41.058Z,97.67
2022-12-24T20:32:42.581Z,97.68
2022-12-24T20:37:46.324Z,97.81
2022-12-24T20:42:48.048Z,97.92
2022-12-24T20:47:49.942Z,97.96
2022-12-24T20:52:51.960Z,98.20
2022-12-24T20:57:53.474Z,98.13
2022-12-24T21:02:55.106Z,98.33
2022-12-24T21:07:56.663Z,98.39
2022-12-24T21:12:59.244Z,98.40
2022-12-24T21:18:09.829Z,98.58
2022-12-24T21:23:11.809Z,98.60
2022-12-24T21:28:13.274Z,98.94
2022-12-24T21:33:14.741Z,98.79
2022-12-24T21:38:16.254Z,98.89
2022-12-24T21:43:17.754Z,98.95
2022-12-24T21:48:38.904Z,98.90
2022-12-24T21:53:59.001Z,98.95
2022-12-24T21:59:00.647Z,98.99
2022-12-24T22:04:02.227Z,99.06
2022-12-24T22:09:22.529Z,99.07
2022-12-24T22:14:24.111Z,98.92
2022-12-24T22:19:25.780Z,99.13
2022-12-24T22:24:27.305Z,99.42
2022-12-24T22:29:28.874Z,99.36
2022-12-24T22:34:31.586Z,99.07
2022-12-24T22:39:33.077Z,99.42
2022-12-24T22:44:34.871Z,99.53
2022-12-24T22:49:37.748Z,99.24
2022-12-24T22:54:39.312Z,99.46
2022-12-24T22:59:40.875Z,99.20
2022-12-24T23:04:42.481Z,99.47
2022-12-24T23:09:43.974Z,99.62
2022-12-24T23:14:57.456Z,99.73
2022-12-24T23:20:01.414Z,99.83
2022-12-24T23:25:03.866Z,99.73
2022-12-24T23:30:05.940Z,99.99
2022-12-24T23:35:07.723Z,100.00
2022-12-24T23:40:09.600Z,99.94
2022-12-24T23:45:11.172Z,100.00
2022-12-24T23:50:13.022Z,100.00
2022-12-24T23:55:14.550Z,99.76
